createdAt,value
2023-04-10T00:00:48.193Z,1.29
2023-04-10T00:03:18.231Z,1.27
2023-04-10T00:05:46.640Z,1.30
2023-04-10T00:08:14.773Z,1.22
2023-04-10T00:10:43.299Z,1.20
2023-04-10T00:13:11.355Z,1.15
2023-04-10T00:15:39.398Z,1.16
2023-04-10T00:18:07.430Z,1.16
2023-04-10T00:20:36.877Z,1.10
2023-04-10T00:23:04.903Z,1.07
2023-04-10T00:25:33.329Z,1.04
2023-04-10T00:28:01.384Z,0.97
2023-04-10T00:30:29.553Z,0.90
2023-04-10T00:32:57.658Z,0.92
2023-04-10T00:35:25.782Z,0.95
2023-04-10T00:37:57.007Z,0.97
2023-04-10T00:40:25.638Z,0.94
2023-04-10T00:42:53.714Z,0.91
2023-04-10T00:45:22.267Z,0.86
2023-04-10T00:47:50.417Z,0.87
2023-04-10T00:50:18.526Z,0.84
2023-04-10T00:52:46.988Z,0.81
2023-04-10T00:55:16.609Z,0.81
2023-04-10T00:57:45.370Z,0.76
2023-04-10T01:00:14.817Z,0.73
2023-04-10T01:02:43.099Z,0.71
2023-04-10T01:05:12.280Z,0.67
2023-04-10T01:07:50.777Z,0.64
2023-04-10T01:10:25.356Z,0.67
2023-04-10T01:12:57.532Z,0.70
2023-04-10T01:15:27.166Z,0.78
2023-04-10T01:17:58.612Z,0.75
2023-04-10T01:20:28.471Z,0.70
2023-04-10T01:23:25.490Z,0.62
2023-04-10T01:25:57.716Z,0.55
2023-04-10T01:28:42.259Z,0.54
2023-04-10T01:31:12.362Z,0.55
2023-04-10T01:33:42.054Z,0.62
2023-04-10T01:36:10.863Z,0.60
2023-04-10T01:38:40.041Z,0.59
2023-04-10T01:41:08.179Z,0.54
2023-04-10T01:43:36.161Z,0.51
2023-04-10T01:46:06.759Z,0.47
2023-04-10T01:48:34.807Z,0.41
2023-04-10T01:51:05.235Z,0.40
2023-04-10T01:53:33.828Z,0.35
2023-04-10T01:56:02.936Z,0.38
2023-04-10T01:58:34.756Z,0.38
2023-04-10T02:01:03.237Z,0.36
2023-04-10T02:03:32.945Z,0.29
2023-04-10T02:06:06.802Z,0.33
2023-04-10T02:08:36.282Z,0.38
2023-04-10T02:11:11.935Z,0.49
2023-04-10T02:13:40.531Z,0.55
2023-04-10T02:16:09.077Z,0.56
2023-04-10T02:18:38.655Z,0.50
2023-04-10T02:21:07.504Z,0.50
2023-04-10T02:23:35.550Z,0.49
2023-04-10T02:26:07.958Z,0.46
2023-04-10T02:28:36.777Z,0.40
2023-04-10T02:31:08.220Z,0.31
2023-04-10T02:33:38.026Z,0.27
2023-04-10T02:36:06.841Z,0.25
2023-04-10T02:38:34.896Z,0.28
2023-04-10T02:41:03.496Z,0.30
2023-04-10T02:43:31.620Z,0.27
2023-04-10T02:46:00.128Z,0.24
2023-04-10T02:48:31.881Z,0.21
2023-04-10T02:51:04.806Z,0.18
2023-04-10T02:53:33.404Z,0.15
2023-04-10T02:56:03.677Z,0.12
2023-04-10T02:58:31.804Z,0.06
2023-04-10T03:01:01.716Z,0.10
2023-04-10T03:03:46.614Z,0.15
2023-04-10T03:06:26.220Z,0.16
2023-04-10T03:08:56.206Z,0.17
2023-04-10T03:11:24.278Z,0.19
2023-04-10T03:13:52.592Z,0.14
2023-04-10T03:16:20.841Z,0.11
2023-04-10T03:18:49.283Z,0.08
2023-04-10T03:21:17.800Z,0.07
2023-04-10T03:23:47.617Z,0.09
2023-04-10T03:26:15.745Z,0.08
2023-04-10T03:28:43.855Z,0.11
2023-04-10T03:31:12.916Z,0.11
2023-04-10T03:33:43.820Z,0.05
2023-04-10T03:36:12.564Z,0.09
2023-04-10T03:38:40.697Z,0.11
2023-04-10T03:41:11.689Z,0.08
2023-04-10T03:43:40.362Z,0.03
2023-04-10T03:46:09.256Z,0.03
2023-04-10T03:48:42.666Z,0.03
2023-04-10T03:51:11.619Z,0.11
2023-04-10T03:53:39.670Z,0.08
2023-04-10T03:56:13.847Z,0.12
2023-04-10T03:58:42.466Z,0.17
2023-04-10T04:01:11.523Z,0.10
2023-04-10T04:03:56.728Z,0.09
2023-04-10T04:06:43.535Z,0.04
2023-04-10T04:09:28.590Z,0.03
2023-04-10T04:12:17.516Z,-0.02
2023-04-10T04:14:51.465Z,-0.02
2023-04-10T04:17:25.806Z,-0.05
2023-04-10T04:20:16.908Z,-0.06
2023-04-10T04:23:10.927Z,-0.02
2023-04-10T04:25:39.029Z,-0.03
2023-04-10T04:28:24.027Z,-0.08
2023-04-10T04:31:12.041Z,-0.08
2023-04-10T04:34:06.619Z,-0.06
2023-04-10T04:36:58.021Z,-0.06
2023-04-10T04:39:53.145Z,-0.08
2023-04-10T04:42:42.747Z,-0.03
2023-04-10T04:45:21.834Z,-0.02
2023-04-10T04:48:28.278Z,0.01
2023-04-10T04:51:14.085Z,0.05
2023-04-10T04:53:57.445Z,0.12
2023-04-10T04:56:44.163Z,0.18
2023-04-10T04:59:30.962Z,0.26
2023-04-10T05:02:25.832Z,0.32
2023-04-10T05:05:05.567Z,0.38
2023-04-10T05:07:47.360Z,0.38
2023-04-10T05:10:35.791Z,0.43
2023-04-10T05:13:13.899Z,0.48
2023-04-10T05:16:14.771Z,0.50
2023-04-10T05:18:58.280Z,0.54
2023-04-10T05:21:52.560Z,0.60
2023-04-10T05:24:28.680Z,0.63
2023-04-10T05:27:15.063Z,0.72
2023-04-10T05:30:06.542Z,0.80
2023-04-10T05:32:37.517Z,0.85
2023-04-10T05:35:45.473Z,0.93
2023-04-10T05:38:33.734Z,1.05
2023-04-10T05:41:22.046Z,1.13
2023-04-10T05:44:05.383Z,1.22
2023-04-10T05:46:47.741Z,1.29
2023-04-10T05:49:18.822Z,1.40
2023-04-10T05:52:03.978Z,1.54
2023-04-10T05:54:40.754Z,1.68
2023-04-10T05:57:27.779Z,1.83
2023-04-10T06:00:23.742Z,2.02
2023-04-10T06:03:17.811Z,2.18
2023-04-10T06:05:52.439Z,2.33
2023-04-10T06:08:22.872Z,2.51
2023-04-10T06:10:51.194Z,2.66
2023-04-10T06:13:19.494Z,2.90
2023-04-10T06:15:47.601Z,3.13
2023-04-10T06:18:16.839Z,3.40
2023-04-10T06:20:45.153Z,3.69
2023-04-10T06:23:14.466Z,3.93
2023-04-10T06:25:44.271Z,4.16
2023-04-10T06:28:12.370Z,4.45
2023-04-10T06:30:41.477Z,4.66
2023-04-10T06:33:09.575Z,4.87
2023-04-10T06:35:41.628Z,5.19
2023-04-10T06:38:09.829Z,5.33
2023-04-10T06:40:39.099Z,5.51
2023-04-10T06:43:08.557Z,5.72
2023-04-10T06:45:39.474Z,5.91
2023-04-10T06:48:08.240Z,6.11
2023-04-10T06:50:36.507Z,6.29
2023-04-10T06:53:04.715Z,6.50
2023-04-10T06:55:32.752Z,6.69
2023-04-10T06:58:00.836Z,6.93
2023-04-10T07:00:30.682Z,7.20
2023-04-10T07:02:58.933Z,7.43
2023-04-10T07:05:27.300Z,7.73
2023-04-10T07:07:55.684Z,7.97
2023-04-10T07:10:23.876Z,8.15
2023-04-10T07:12:52.096Z,8.35
2023-04-10T07:15:20.795Z,8.51
2023-04-10T07:17:51.498Z,8.70
2023-04-10T07:20:22.584Z,8.85
2023-04-10T07:22:50.718Z,8.94
2023-04-10T07:25:18.903Z,9.12
2023-04-10T07:27:47.363Z,9.26
2023-04-10T07:30:15.565Z,9.30
2023-04-10T07:32:43.858Z,9.30
2023-04-10T07:35:13.381Z,9.42
2023-04-10T07:37:41.981Z,9.50
2023-04-10T07:40:11.539Z,9.59
2023-04-10T07:42:39.971Z,9.65
2023-04-10T07:45:09.413Z,9.73
2023-04-10T07:47:37.654Z,9.73
2023-04-10T07:50:06.920Z,9.91
2023-04-10T07:52:36.415Z,10.05
2023-04-10T07:55:04.572Z,10.04
2023-04-10T07:57:33.306Z,10.16
2023-04-10T08:00:01.298Z,10.25
2023-04-10T08:02:29.534Z,10.42
2023-04-10T08:04:57.717Z,10.47
2023-04-10T08:07:26.030Z,10.64
2023-04-10T08:09:55.872Z,10.75
2023-04-10T08:12:23.944Z,10.69
2023-04-10T08:14:52.658Z,10.72
2023-04-10T08:17:20.860Z,10.81
2023-04-10T08:19:48.970Z,11.12
2023-04-10T08:22:17.044Z,11.14
2023-04-10T08:24:45.605Z,11.09
2023-04-10T08:27:16.264Z,11.24
2023-04-10T08:29:44.319Z,11.27
2023-04-10T08:32:12.390Z,11.28
2023-04-10T08:34:40.500Z,11.35
2023-04-10T08:37:11.838Z,11.48
2023-04-10T08:39:40.012Z,11.47
2023-04-10T08:42:08.407Z,11.50
2023-04-10T08:44:39.210Z,11.58
2023-04-10T08:47:07.450Z,11.71
2023-04-10T08:49:44.852Z,11.82
2023-04-10T08:52:15.716Z,11.81
2023-04-10T08:54:44.986Z,11.98
2023-04-10T08:57:13.810Z,11.96
2023-04-10T08:59:43.278Z,11.98
2023-04-10T09:02:11.484Z,12.03
2023-04-10T09:04:40.134Z,12.13
2023-04-10T09:07:08.363Z,12.17
2023-04-10T09:09:36.407Z,12.19
2023-04-10T09:12:06.887Z,12.29
2023-04-10T09:14:35.922Z,12.35
2023-04-10T09:17:16.288Z,12.47
2023-04-10T09:19:45.317Z,12.45
2023-04-10T09:22:13.525Z,12.64
2023-04-10T09:24:42.484Z,12.63
2023-04-10T09:27:10.681Z,12.96
2023-04-10T09:29:43.709Z,13.38
2023-04-10T09:32:11.979Z,13.65
2023-04-10T09:34:58.763Z,14.10
2023-04-10T09:37:32.877Z,14.54
2023-04-10T09:40:01.023Z,14.51
2023-04-10T09:42:32.864Z,14.62
2023-04-10T09:45:01.272Z,14.95
2023-04-10T09:47:30.084Z,15.04
2023-04-10T09:50:00.782Z,15.14
2023-04-10T09:52:29.907Z,15.39
2023-04-10T09:54:58.998Z,15.58
2023-04-10T09:57:29.201Z,15.75
2023-04-10T09:59:58.588Z,15.81
2023-04-10T10:02:27.358Z,16.03
2023-04-10T10:04:55.740Z,16.29
2023-04-10T10:07:25.205Z,16.52
2023-04-10T10:09:53.687Z,16.59
2023-04-10T10:12:24.360Z,16.58
2023-04-10T10:14:55.451Z,16.61
2023-04-10T10:17:23.552Z,16.80
2023-04-10T10:19:54.855Z,16.79
2023-04-10T10:22:22.926Z,16.94
2023-04-10T10:24:56.651Z,16.86
2023-04-10T10:27:24.842Z,16.81
2023-04-10T10:29:54.801Z,17.16
2023-04-10T10:32:22.904Z,17.23
2023-04-10T10:34:53.053Z,17.20
2023-04-10T10:37:21.842Z,17.28
2023-04-10T10:39:57.980Z,17.45
2023-04-10T10:42:29.676Z,17.32
2023-04-10T10:45:01.454Z,17.22
2023-04-10T10:47:30.192Z,17.01
2023-04-10T10:49:59.075Z,16.93
2023-04-10T10:52:46.577Z,17.15
2023-04-10T10:55:37.716Z,17.32
2023-04-10T10:58:07.150Z,17.54
2023-04-10T11:01:09.830Z,17.71
2023-04-10T11:03:39.250Z,17.37
2023-04-10T11:06:08.740Z,17.38
2023-04-10T11:08:47.262Z,17.22
2023-04-10T11:11:21.727Z,17.20
2023-04-10T11:14:21.445Z,17.15
2023-04-10T11:16:49.651Z,17.18
2023-04-10T11:19:22.747Z,17.13
2023-04-10T11:22:08.260Z,17.17
2023-04-10T11:25:02.668Z,16.78
2023-04-10T11:27:49.759Z,16.84
2023-04-10T11:30:28.276Z,17.16
2023-04-10T11:32:56.569Z,17.26
2023-04-10T11:35:24.925Z,17.21
2023-04-10T11:37:53.462Z,17.19
2023-04-10T11:40:21.529Z,17.36
2023-04-10T11:42:51.002Z,17.38
2023-04-10T11:45:29.094Z,17.61
2023-04-10T11:47:57.827Z,17.37
2023-04-10T11:50:25.936Z,17.47
2023-04-10T11:52:55.329Z,17.40
2023-04-10T11:55:38.345Z,17.30
2023-04-10T11:58:22.425Z,17.02
2023-04-10T12:01:00.242Z,16.44
2023-04-10T12:03:36.266Z,16.34
2023-04-10T12:06:07.154Z,16.30
2023-04-10T12:08:35.472Z,16.12
2023-04-10T12:11:03.726Z,15.82
2023-04-10T12:13:33.400Z,15.70
2023-04-10T12:16:02.295Z,15.22
2023-04-10T12:18:30.884Z,14.82
2023-04-10T12:20:59.534Z,14.93
2023-04-10T12:23:28.166Z,15.06
2023-04-10T12:26:12.583Z,15.28
2023-04-10T12:28:42.480Z,15.28
2023-04-10T12:31:10.581Z,15.33
2023-04-10T12:33:39.114Z,15.20
2023-04-10T12:36:07.863Z,15.38
2023-04-10T12:38:37.402Z,15.25
2023-04-10T12:41:06.284Z,15.13
2023-04-10T12:43:35.428Z,15.20
2023-04-10T12:46:05.445Z,15.30
2023-04-10T12:48:34.005Z,15.36
2023-04-10T12:51:02.190Z,15.36
2023-04-10T12:53:30.451Z,15.12
2023-04-10T12:56:00.173Z,15.00
2023-04-10T12:58:29.133Z,14.66
2023-04-10T13:00:58.210Z,14.56
2023-04-10T13:03:27.757Z,14.70
2023-04-10T13:05:55.867Z,14.79
2023-04-10T13:08:23.905Z,14.83
2023-04-10T13:10:53.128Z,14.72
2023-04-10T13:13:21.427Z,14.56
2023-04-10T13:15:49.951Z,14.53
2023-04-10T13:18:18.023Z,14.54
2023-04-10T13:20:47.436Z,14.52
2023-04-10T13:23:15.524Z,14.48
2023-04-10T13:25:43.613Z,14.42
2023-04-10T13:28:12.249Z,14.28
2023-04-10T13:30:41.625Z,14.29
2023-04-10T13:33:09.930Z,14.39
2023-04-10T13:35:38.132Z,14.40
2023-04-10T13:38:09.362Z,14.37
2023-04-10T13:40:37.633Z,14.29
2023-04-10T13:43:06.480Z,14.22
2023-04-10T13:45:34.940Z,14.16
2023-04-10T13:48:03.989Z,14.21
2023-04-10T13:50:32.351Z,14.15
2023-04-10T13:53:00.402Z,14.15
2023-04-10T13:55:30.292Z,14.22
2023-04-10T13:57:58.364Z,14.23
2023-04-10T14:00:26.646Z,14.29
2023-04-10T14:02:54.794Z,14.25
2023-04-10T14:05:22.987Z,14.24
2023-04-10T14:07:51.967Z,14.24
2023-04-10T14:10:20.962Z,14.39
2023-04-10T14:12:50.546Z,14.34
2023-04-10T14:15:18.837Z,14.42
2023-04-10T14:17:46.968Z,14.51
2023-04-10T14:20:15.573Z,14.48
2023-04-10T14:22:43.650Z,14.30
2023-04-10T14:25:15.908Z,14.26
2023-04-10T14:27:44.589Z,14.29
2023-04-10T14:30:14.904Z,14.30
2023-04-10T14:32:43.962Z,14.43
2023-04-10T14:35:12.099Z,14.34
2023-04-10T14:37:40.303Z,14.53
2023-04-10T14:40:09.767Z,14.59
2023-04-10T14:42:37.863Z,14.61
2023-04-10T14:45:06.736Z,14.45
2023-04-10T14:47:37.109Z,14.30
2023-04-10T14:50:05.837Z,14.27
2023-04-10T14:52:33.977Z,14.33
2023-04-10T14:55:02.260Z,14.33
2023-04-10T14:57:30.966Z,14.28
2023-04-10T15:00:01.322Z,14.29
2023-04-10T15:02:30.503Z,14.25
2023-04-10T15:05:00.158Z,14.34
2023-04-10T15:07:28.870Z,14.26
2023-04-10T15:09:57.754Z,14.17
2023-04-10T15:12:25.951Z,14.09
2023-04-10T15:14:54.494Z,13.94
2023-04-10T15:17:23.122Z,13.84
2023-04-10T15:19:51.331Z,13.74
2023-04-10T15:22:20.746Z,13.71
2023-04-10T15:24:50.771Z,13.72
2023-04-10T15:27:20.400Z,13.77
2023-04-10T15:29:48.575Z,13.92
2023-04-10T15:32:16.677Z,14.02
2023-04-10T15:34:45.146Z,14.11
2023-04-10T15:37:13.200Z,14.19
2023-04-10T15:39:42.728Z,14.16
2023-04-10T15:42:11.172Z,14.14
2023-04-10T15:44:39.233Z,14.11
2023-04-10T15:47:07.296Z,13.95
2023-04-10T15:49:38.363Z,13.85
2023-04-10T15:52:07.043Z,13.74
2023-04-10T15:54:35.698Z,13.64
2023-04-10T15:57:05.251Z,13.57
2023-04-10T15:59:33.768Z,13.50
2023-04-10T16:02:03.587Z,13.44
2023-04-10T16:04:31.911Z,13.40
2023-04-10T16:07:01.140Z,13.22
2023-04-10T16:09:30.480Z,13.10
2023-04-10T16:11:58.637Z,12.99
2023-04-10T16:14:31.441Z,12.85
2023-04-10T16:16:59.965Z,12.66
2023-04-10T16:19:32.261Z,12.54
2023-04-10T16:22:00.716Z,12.40
2023-04-10T16:24:28.772Z,12.29
2023-04-10T16:26:56.907Z,12.19
2023-04-10T16:29:24.923Z,12.06
2023-04-10T16:31:54.424Z,11.98
2023-04-10T16:34:22.640Z,11.94
2023-04-10T16:36:51.131Z,11.87
2023-04-10T16:39:19.310Z,11.82
2023-04-10T16:41:47.348Z,11.77
2023-04-10T16:44:15.475Z,11.72
2023-04-10T16:46:43.562Z,11.64
2023-04-10T16:49:13.496Z,11.59
2023-04-10T16:51:41.672Z,11.59
2023-04-10T16:54:09.817Z,11.54
2023-04-10T16:56:37.866Z,11.55
2023-04-10T16:59:05.931Z,11.52
2023-04-10T17:01:40.054Z,11.49
2023-04-10T17:04:09.290Z,11.43
2023-04-10T17:06:38.800Z,11.39
2023-04-10T17:09:06.950Z,11.33
2023-04-10T17:11:35.029Z,11.26
2023-04-10T17:14:03.191Z,11.21
2023-04-10T17:16:31.261Z,11.12
2023-04-10T17:18:59.759Z,11.03
2023-04-10T17:21:28.327Z,10.95
2023-04-10T17:23:57.732Z,10.90
2023-04-10T17:26:25.867Z,10.86
2023-04-10T17:28:54.129Z,10.81
2023-04-10T17:31:22.501Z,10.78
2023-04-10T17:33:50.679Z,10.73
2023-04-10T17:36:18.723Z,10.68
2023-04-10T17:38:46.887Z,10.61
2023-04-10T17:41:17.096Z,10.53
2023-04-10T17:43:45.296Z,10.48
2023-04-10T17:46:16.620Z,10.34
2023-04-10T17:48:44.765Z,10.22
2023-04-10T17:51:12.846Z,10.16
2023-04-10T17:53:40.855Z,10.08
2023-04-10T17:56:09.299Z,10.04
2023-04-10T17:58:38.748Z,9.99
2023-04-10T18:01:07.687Z,9.93
2023-04-10T18:03:35.893Z,9.84
2023-04-10T18:06:04.093Z,9.79
2023-04-10T18:08:32.106Z,9.75
2023-04-10T18:11:00.136Z,9.73
2023-04-10T18:13:28.617Z,9.67
2023-04-10T18:15:58.082Z,9.62
2023-04-10T18:18:26.100Z,9.58
2023-04-10T18:20:54.174Z,9.56
2023-04-10T18:23:24.135Z,9.54
2023-04-10T18:25:54.212Z,9.59
2023-04-10T18:28:22.287Z,9.56
2023-04-10T18:30:50.500Z,9.56
2023-04-10T18:33:23.990Z,9.51
2023-04-10T18:35:52.652Z,9.51
2023-04-10T18:38:20.758Z,9.51
2023-04-10T18:40:49.290Z,9.53
2023-04-10T18:43:17.420Z,9.55
2023-04-10T18:45:45.713Z,9.53
2023-04-10T18:48:13.784Z,9.53
2023-04-10T18:50:43.279Z,9.49
2023-04-10T18:53:11.366Z,9.49
2023-04-10T18:55:39.816Z,9.50
2023-04-10T18:58:07.971Z,9.46
2023-04-10T19:00:36.208Z,9.44
2023-04-10T19:03:04.563Z,9.52
2023-04-10T19:05:33.685Z,9.51
2023-04-10T19:08:04.534Z,9.47
2023-04-10T19:10:33.395Z,9.45
2023-04-10T19:13:01.520Z,9.44
2023-04-10T19:15:29.876Z,9.44
2023-04-10T19:17:58.062Z,9.41
2023-04-10T19:20:49.373Z,9.39
2023-04-10T19:23:16.443Z,9.35
2023-04-10T19:25:44.867Z,9.34
2023-04-10T19:28:12.971Z,9.29
2023-04-10T19:30:41.042Z,9.30
2023-04-10T19:33:09.138Z,9.29
2023-04-10T19:35:37.241Z,9.24
2023-04-10T19:38:05.313Z,9.23
2023-04-10T19:40:34.733Z,9.21
2023-04-10T19:43:02.789Z,9.19
2023-04-10T19:45:32.440Z,9.16
2023-04-10T19:48:01.220Z,9.13
2023-04-10T19:50:30.583Z,9.16
2023-04-10T19:52:59.561Z,9.15
2023-04-10T19:55:27.883Z,9.12
2023-04-10T19:57:57.365Z,9.08
2023-04-10T20:00:25.424Z,9.10
2023-04-10T20:02:54.021Z,9.12
2023-04-10T20:05:22.367Z,9.17
2023-04-10T20:07:50.526Z,9.19
2023-04-10T20:10:18.646Z,9.21
2023-04-10T20:12:46.673Z,9.23
2023-04-10T20:15:16.407Z,9.23
2023-04-10T20:17:44.704Z,9.20
2023-04-10T20:20:13.604Z,9.16
2023-04-10T20:22:41.695Z,9.14
2023-04-10T20:25:10.496Z,9.19
2023-04-10T20:27:38.599Z,9.20
2023-04-10T20:30:08.378Z,9.19
2023-04-10T20:32:37.948Z,9.17
2023-04-10T20:35:06.836Z,9.16
2023-04-10T20:37:34.872Z,9.17
2023-04-10T20:40:02.999Z,9.11
2023-04-10T20:42:31.213Z,9.04
2023-04-10T20:44:59.607Z,9.07
2023-04-10T20:47:27.776Z,9.04
2023-04-10T20:49:57.206Z,9.07
2023-04-10T20:52:25.299Z,9.05
2023-04-10T20:54:53.348Z,9.04
2023-04-10T20:57:21.854Z,9.02
2023-04-10T20:59:49.924Z,8.95
2023-04-10T21:02:18.621Z,8.92
2023-04-10T21:04:46.800Z,8.93
2023-04-10T21:07:16.294Z,8.91
2023-04-10T21:09:45.713Z,8.88
2023-04-10T21:12:13.776Z,8.89
2023-04-10T21:14:41.820Z,8.85
2023-04-10T21:17:09.870Z,8.82
2023-04-10T21:19:37.888Z,8.79
2023-04-10T21:22:06.413Z,8.79
2023-04-10T21:24:35.839Z,8.72
2023-04-10T21:27:03.892Z,8.70
2023-04-10T21:29:31.941Z,8.68
2023-04-10T21:32:00.068Z,8.70
2023-04-10T21:34:28.175Z,8.69
2023-04-10T21:36:56.631Z,8.72
2023-04-10T21:39:24.687Z,8.73
2023-04-10T21:41:54.104Z,8.73
2023-04-10T21:44:22.211Z,8.78
2023-04-10T21:46:50.270Z,8.84
2023-04-10T21:49:18.307Z,8.85
2023-04-10T21:51:46.739Z,8.88
2023-04-10T21:54:14.825Z,8.88
2023-04-10T21:56:43.319Z,8.92
2023-04-10T21:59:12.771Z,8.94
2023-04-10T22:01:41.856Z,8.95
2023-04-10T22:04:10.598Z,8.96
2023-04-10T22:06:38.894Z,8.94
2023-04-10T22:09:06.930Z,8.92
2023-04-10T22:11:37.391Z,8.90
2023-04-10T22:14:15.984Z,8.89
2023-04-10T22:16:46.865Z,8.86
2023-04-10T22:19:15.488Z,8.86
2023-04-10T22:21:43.572Z,8.84
2023-04-10T22:24:11.726Z,8.84
2023-04-10T22:26:42.097Z,8.82
2023-04-10T22:29:10.157Z,8.83
2023-04-10T22:31:38.606Z,8.82
2023-04-10T22:34:08.844Z,8.80
2023-04-10T22:36:36.948Z,8.80
2023-04-10T22:39:05.127Z,8.76
2023-04-10T22:41:33.264Z,8.78
2023-04-10T22:44:01.347Z,8.74
2023-04-10T22:46:29.716Z,8.69
2023-04-10T22:48:57.817Z,8.65
2023-04-10T22:51:27.791Z,8.63
2023-04-10T22:53:55.857Z,8.65
2023-04-10T22:56:26.563Z,8.63
2023-04-10T22:58:55.064Z,8.60
2023-04-10T23:01:23.695Z,8.59
2023-04-10T23:03:53.742Z,8.54
2023-04-10T23:06:21.982Z,8.59
2023-04-10T23:08:52.024Z,8.56
2023-04-10T23:11:20.091Z,8.53
2023-04-10T23:13:48.823Z,8.48
2023-04-10T23:16:16.923Z,8.47
2023-04-10T23:18:45.117Z,8.45
2023-04-10T23:21:13.196Z,8.42
2023-04-10T23:23:41.303Z,8.40
2023-04-10T23:26:11.892Z,8.38
2023-04-10T23:28:40.339Z,8.32
2023-04-10T23:31:09.176Z,8.30
2023-04-10T23:33:37.317Z,8.27
2023-04-10T23:36:06.126Z,8.24
2023-04-10T23:38:34.154Z,8.28
2023-04-10T23:41:02.947Z,8.27
2023-04-10T23:43:32.845Z,8.32
2023-04-10T23:46:00.909Z,8.32
2023-04-10T23:48:28.990Z,8.31
2023-04-10T23:51:04.183Z,8.27
2023-04-10T23:53:32.258Z,8.30
2023-04-10T23:56:00.622Z,8.28
2023-04-10T23:58:28.653Z,8.25
